sensor_id;sensor_type;location;lat;lon;timestamp;P1;durP1;ratioP1;P2;durP2;ratioP2
7263;SDS011;3673;52.480;13.348;2022-08-25T00:00:45;9.70;;;5.63;;
7263;SDS011;3673;52.480;13.348;2022-08-25T00:03:14;7.95;;;6.38;;
7263;SDS011;3673;52.480;13.348;2022-08-25T00:05:42;7.88;;;5.47;;
7263;SDS011;3673;52.480;13.348;2022-08-25T00:08:09;9.95;;;5.63;;
7263;SDS011;3673;52.480;13.348;2022-08-25T00:10:37;10.35;;;6.35;;
7263;SDS011;3673;52.480;13.348;2022-08-25T00:13:05;10.77;;;6.80;;
7263;SDS011;3673;52.480;13.348;2022-08-25T00:15:32;10.82;;;6.75;;
7263;SDS011;3673;52.480;13.348;2022-08-25T00:18:00;11.20;;;7.47;;
7263;SDS011;3673;52.480;13.348;2022-08-25T00:20:27;10.15;;;6.93;;
7263;SDS011;3673;52.480;13.348;2022-08-25T00:22:56;9.57;;;7.18;;
7263;SDS011;3673;52.480;13.348;2022-08-25T00:25:23;10.82;;;6.88;;
7263;SDS011;3673;52.480;13.348;2022-08-25T00:27:50;13.65;;;7.97;;
7263;SDS011;3673;52.480;13.348;2022-08-25T00:30:17;9.55;;;6.80;;
7263;SDS011;3673;52.480;13.348;2022-08-25T00:32:44;11.13;;;6.93;;
7263;SDS011;3673;52.480;13.348;2022-08-25T00:35:12;16.42;;;8.48;;
7263;SDS011;3673;52.480;13.348;2022-08-25T00:37:39;12.18;;;8.18;;
7263;SDS011;3673;52.480;13.348;2022-08-25T00:40:08;10.75;;;7.05;;
7263;SDS011;3673;52.480;13.348;2022-08-25T00:42:36;10.85;;;6.38;;
7263;SDS011;3673;52.480;13.348;2022-08-25T00:45:04;9.65;;;6.90;;
7263;SDS011;3673;52.480;13.348;2022-08-25T00:47:33;7.95;;;6.75;;
7263;SDS011;3673;52.480;13.348;2022-08-25T00:50:01;10.20;;;7.40;;
7263;SDS011;3673;52.480;13.348;2022-08-25T00:52:34;10.77;;;8.73;;
7263;SDS011;3673;52.480;13.348;2022-08-25T00:55:05;12.77;;;8.07;;
7263;SDS011;3673;52.480;13.348;2022-08-25T00:57:39;9.88;;;7.60;;
7263;SDS011;3673;52.480;13.348;2022-08-25T01:00:12;13.23;;;8.02;;
7263;SDS011;3673;52.480;13.348;2022-08-25T01:02:43;10.20;;;6.53;;
7263;SDS011;3673;52.480;13.348;2022-08-25T01:05:10;12.95;;;8.63;;
7263;SDS011;3673;52.480;13.348;2022-08-25T01:07:37;13.05;;;7.82;;
7263;SDS011;3673;52.480;13.348;2022-08-25T01:10:09;10.82;;;8.70;;
7263;SDS011;3673;52.480;13.348;2022-08-25T01:12:37;12.20;;;8.07;;
7263;SDS011;3673;52.480;13.348;2022-08-25T01:15:09;12.52;;;8.60;;
7263;SDS011;3673;52.480;13.348;2022-08-25T01:17:44;14.57;;;7.60;;
7263;SDS011;3673;52.480;13.348;2022-08-25T01:20:13;17.73;;;10.30;;
7263;SDS011;3673;52.480;13.348;2022-08-25T01:22:44;12.77;;;8.02;;
7263;SDS011;3673;52.480;13.348;2022-08-25T01:25:16;14.25;;;8.90;;
7263;SDS011;3673;52.480;13.348;2022-08-25T01:27:53;14.65;;;11.35;;
7263;SDS011;3673;52.480;13.348;2022-08-25T01:30:20;11.82;;;8.65;;
7263;SDS011;3673;52.480;13.348;2022-08-25T01:32:47;12.15;;;8.07;;
7263;SDS011;3673;52.480;13.348;2022-08-25T01:35:14;14.40;;;9.77;;
7263;SDS011;3673;52.480;13.348;2022-08-25T01:37:41;12.48;;;7.30;;
7263;SDS011;3673;52.480;13.348;2022-08-25T01:40:10;12.13;;;8.57;;
7263;SDS011;3673;52.480;13.348;2022-08-25T01:42:41;14.05;;;9.40;;
7263;SDS011;3673;52.480;13.348;2022-08-25T01:45:18;15.93;;;9.85;;
7263;SDS011;3673;52.480;13.348;2022-08-25T01:47:45;14.27;;;9.68;;
7263;SDS011;3673;52.480;13.348;2022-08-25T01:50:12;13.18;;;9.40;;
7263;SDS011;3673;52.480;13.348;2022-08-25T01:52:44;10.98;;;7.88;;
7263;SDS011;3673;52.480;13.348;2022-08-25T01:55:17;13.13;;;9.43;;
7263;SDS011;3673;52.480;13.348;2022-08-25T01:57:44;15.82;;;9.48;;
7263;SDS011;3673;52.480;13.348;2022-08-25T02:00:12;16.02;;;8.75;;
7263;SDS011;3673;52.480;13.348;2022-08-25T02:02:41;11.68;;;8.23;;
7263;SDS011;3673;52.480;13.348;2022-08-25T02:05:08;18.08;;;11.23;;
7263;SDS011;3673;52.480;13.348;2022-08-25T02:07:37;16.45;;;10.80;;
7263;SDS011;3673;52.480;13.348;2022-08-25T02:10:04;17.55;;;11.48;;
7263;SDS011;3673;52.480;13.348;2022-08-25T02:12:34;11.70;;;10.25;;
7263;SDS011;3673;52.480;13.348;2022-08-25T02:15:01;18.30;;;11.65;;
7263;SDS011;3673;52.480;13.348;2022-08-25T02:17:30;15.65;;;11.80;;
7263;SDS011;3673;52.480;13.348;2022-08-25T02:19:57;10.95;;;8.07;;
7263;SDS011;3673;52.480;13.348;2022-08-25T02:22:23;10.32;;;7.85;;
7263;SDS011;3673;52.480;13.348;2022-08-25T02:24:50;12.35;;;9.70;;
7263;SDS011;3673;52.480;13.348;2022-08-25T02:27:17;13.93;;;9.13;;
7263;SDS011;3673;52.480;13.348;2022-08-25T02:29:45;13.52;;;7.72;;
7263;SDS011;3673;52.480;13.348;2022-08-25T02:32:12;13.30;;;9.23;;
7263;SDS011;3673;52.480;13.348;2022-08-25T02:34:39;13.88;;;9.80;;
7263;SDS011;3673;52.480;13.348;2022-08-25T02:37:06;18.10;;;10.77;;
7263;SDS011;3673;52.480;13.348;2022-08-25T02:39:33;13.80;;;10.50;;
7263;SDS011;3673;52.480;13.348;2022-08-25T02:42:00;13.68;;;8.60;;
7263;SDS011;3673;52.480;13.348;2022-08-25T02:44:27;12.82;;;8.25;;
7263;SDS011;3673;52.480;13.348;2022-08-25T02:46:57;11.45;;;9.38;;
7263;SDS011;3673;52.480;13.348;2022-08-25T02:49:23;14.02;;;9.07;;
7263;SDS011;3673;52.480;13.348;2022-08-25T02:51:50;12.85;;;8.63;;
7263;SDS011;3673;52.480;13.348;2022-08-25T02:54:18;15.73;;;9.18;;
7263;SDS011;3673;52.480;13.348;2022-08-25T02:56:47;17.05;;;10.15;;
7263;SDS011;3673;52.480;13.348;2022-08-25T02:59:14;13.25;;;10.00;;
7263;SDS011;3673;52.480;13.348;2022-08-25T03:01:43;13.73;;;10.55;;
7263;SDS011;3673;52.480;13.348;2022-08-25T03:04:11;14.35;;;10.75;;
7263;SDS011;3673;52.480;13.348;2022-08-25T03:06:38;16.75;;;10.27;;
7263;SDS011;3673;52.480;13.348;2022-08-25T03:09:05;10.75;;;8.50;;
7263;SDS011;3673;52.480;13.348;2022-08-25T03:11:32;17.75;;;11.57;;
7263;SDS011;3673;52.480;13.348;2022-08-25T03:14:01;15.18;;;10.68;;
7263;SDS011;3673;52.480;13.348;2022-08-25T03:16:27;15.90;;;9.50;;
7263;SDS011;3673;52.480;13.348;2022-08-25T03:18:54;15.45;;;9.57;;
7263;SDS011;3673;52.480;13.348;2022-08-25T03:21:23;18.65;;;9.93;;
7263;SDS011;3673;52.480;13.348;2022-08-25T03:23:50;12.85;;;9.45;;
7263;SDS011;3673;52.480;13.348;2022-08-25T03:26:17;12.63;;;9.32;;
7263;SDS011;3673;52.480;13.348;2022-08-25T03:29:01;13.75;;;11.38;;
7263;SDS011;3673;52.480;13.348;2022-08-25T03:31:30;16.52;;;10.38;;
7263;SDS011;3673;52.480;13.348;2022-08-25T03:33:57;14.80;;;9.63;;
7263;SDS011;3673;52.480;13.348;2022-08-25T03:36:26;11.60;;;9.95;;
7263;SDS011;3673;52.480;13.348;2022-08-25T03:38:54;15.23;;;8.82;;
7263;SDS011;3673;52.480;13.348;2022-08-25T03:41:22;12.13;;;9.25;;
7263;SDS011;3673;52.480;13.348;2022-08-25T03:43:52;12.48;;;10.05;;
7263;SDS011;3673;52.480;13.348;2022-08-25T03:46:21;16.35;;;10.93;;
7263;SDS011;3673;52.480;13.348;2022-08-25T03:48:50;14.25;;;9.95;;
7263;SDS011;3673;52.480;13.348;2022-08-25T03:51:18;16.40;;;9.38;;
7263;SDS011;3673;52.480;13.348;2022-08-25T03:53:47;14.85;;;11.48;;
7263;SDS011;3673;52.480;13.348;2022-08-25T03:56:14;18.90;;;9.48;;
7263;SDS011;3673;52.480;13.348;2022-08-25T03:58:41;15.48;;;12.00;;
7263;SDS011;3673;52.480;13.348;2022-08-25T04:01:08;18.92;;;9.98;;
7263;SDS011;3673;52.480;13.348;2022-08-25T04:03:35;17.88;;;11.43;;
7263;SDS011;3673;52.480;13.348;2022-08-25T04:06:03;15.88;;;9.77;;
7263;SDS011;3673;52.480;13.348;2022-08-25T04:08:32;12.63;;;9.43;;
7263;SDS011;3673;52.480;13.348;2022-08-25T04:11:05;14.02;;;9.10;;
7263;SDS011;3673;52.480;13.348;2022-08-25T04:13:33;15.65;;;8.57;;
7263;SDS011;3673;52.480;13.348;2022-08-25T04:16:01;13.63;;;10.25;;
7263;SDS011;3673;52.480;13.348;2022-08-25T04:18:28;20.90;;;10.20;;
7263;SDS011;3673;52.480;13.348;2022-08-25T04:21:00;16.17;;;9.27;;
7263;SDS011;3673;52.480;13.348;2022-08-25T04:23:28;15.85;;;11.50;;
7263;SDS011;3673;52.480;13.348;2022-08-25T04:25:57;14.88;;;9.13;;
7263;SDS011;3673;52.480;13.348;2022-08-25T04:28:25;14.57;;;9.88;;
7263;SDS011;3673;52.480;13.348;2022-08-25T04:30:52;15.27;;;10.55;;
7263;SDS011;3673;52.480;13.348;2022-08-25T04:33:18;16.35;;;11.35;;
7263;SDS011;3673;52.480;13.348;2022-08-25T04:35:46;16.20;;;12.45;;
7263;SDS011;3673;52.480;13.348;2022-08-25T04:38:13;17.45;;;11.50;;
7263;SDS011;3673;52.480;13.348;2022-08-25T04:40:41;18.92;;;13.55;;
7263;SDS011;3673;52.480;13.348;2022-08-25T04:43:08;21.77;;;12.68;;
7263;SDS011;3673;52.480;13.348;2022-08-25T04:45:37;15.85;;;11.10;;
7263;SDS011;3673;52.480;13.348;2022-08-25T04:48:04;16.65;;;12.05;;
7263;SDS011;3673;52.480;13.348;2022-08-25T04:50:31;15.25;;;12.07;;
7263;SDS011;3673;52.480;13.348;2022-08-25T04:52:58;20.65;;;13.85;;
7263;SDS011;3673;52.480;13.348;2022-08-25T04:55:25;20.80;;;13.07;;
7263;SDS011;3673;52.480;13.348;2022-08-25T04:57:52;20.55;;;14.80;;
7263;SDS011;3673;52.480;13.348;2022-08-25T05:00:18;17.75;;;13.38;;
7263;SDS011;3673;52.480;13.348;2022-08-25T05:02:46;21.30;;;13.90;;
7263;SDS011;3673;52.480;13.348;2022-08-25T05:05:13;19.40;;;13.90;;
7263;SDS011;3673;52.480;13.348;2022-08-25T05:07:41;22.95;;;15.30;;
7263;SDS011;3673;52.480;13.348;2022-08-25T05:10:07;19.88;;;14.43;;
7263;SDS011;3673;52.480;13.348;2022-08-25T05:12:34;21.67;;;16.15;;
7263;SDS011;3673;52.480;13.348;2022-08-25T05:15:01;19.15;;;15.35;;
7263;SDS011;3673;52.480;13.348;2022-08-25T05:20:16;23.50;;;17.55;;
7263;SDS011;3673;52.480;13.348;2022-08-25T05:22:44;25.60;;;19.00;;
7263;SDS011;3673;52.480;13.348;2022-08-25T05:25:11;27.40;;;22.88;;
7263;SDS011;3673;52.480;13.348;2022-08-25T05:27:39;24.48;;;18.58;;
7263;SDS011;3673;52.480;13.348;2022-08-25T05:30:08;23.73;;;16.90;;
7263;SDS011;3673;52.480;13.348;2022-08-25T05:32:36;30.30;;;20.98;;
7263;SDS011;3673;52.480;13.348;2022-08-25T05:35:05;28.63;;;18.23;;
7263;SDS011;3673;52.480;13.348;2022-08-25T05:37:33;27.63;;;21.42;;
7263;SDS011;3673;52.480;13.348;2022-08-25T05:40:01;23.88;;;17.35;;
7263;SDS011;3673;52.480;13.348;2022-08-25T05:42:29;30.63;;;22.15;;
7263;SDS011;3673;52.480;13.348;2022-08-25T05:44:56;26.63;;;17.05;;
7263;SDS011;3673;52.480;13.348;2022-08-25T05:47:23;24.88;;;19.20;;
7263;SDS011;3673;52.480;13.348;2022-08-25T05:49:50;24.17;;;16.80;;
7263;SDS011;3673;52.480;13.348;2022-08-25T05:52:18;26.17;;;18.90;;
7263;SDS011;3673;52.480;13.348;2022-08-25T05:54:45;27.30;;;19.67;;
7263;SDS011;3673;52.480;13.348;2022-08-25T05:57:11;20.23;;;17.17;;
7263;SDS011;3673;52.480;13.348;2022-08-25T05:59:38;26.38;;;18.25;;
7263;SDS011;3673;52.480;13.348;2022-08-25T06:02:05;25.60;;;19.13;;
7263;SDS011;3673;52.480;13.348;2022-08-25T06:04:50;27.27;;;19.63;;
7263;SDS011;3673;52.480;13.348;2022-08-25T06:07:18;24.08;;;19.40;;
7263;SDS011;3673;52.480;13.348;2022-08-25T06:09:45;22.88;;;18.25;;
7263;SDS011;3673;52.480;13.348;2022-08-25T06:12:13;25.23;;;18.15;;
7263;SDS011;3673;52.480;13.348;2022-08-25T06:14:41;24.95;;;18.95;;
7263;SDS011;3673;52.480;13.348;2022-08-25T06:17:08;25.75;;;18.65;;
7263;SDS011;3673;52.480;13.348;2022-08-25T06:19:35;25.08;;;18.67;;
7263;SDS011;3673;52.480;13.348;2022-08-25T06:22:02;24.15;;;18.73;;
7263;SDS011;3673;52.480;13.348;2022-08-25T06:24:30;26.02;;;20.90;;
7263;SDS011;3673;52.480;13.348;2022-08-25T06:26:58;25.52;;;19.75;;
7263;SDS011;3673;52.480;13.348;2022-08-25T06:29:25;26.63;;;19.85;;
7263;SDS011;3673;52.480;13.348;2022-08-25T06:31:52;32.00;;;21.42;;
7263;SDS011;3673;52.480;13.348;2022-08-25T06:34:18;24.90;;;18.67;;
7263;SDS011;3673;52.480;13.348;2022-08-25T06:36:45;24.38;;;19.85;;
7263;SDS011;3673;52.480;13.348;2022-08-25T06:39:14;31.60;;;22.10;;
7263;SDS011;3673;52.480;13.348;2022-08-25T06:41:42;32.13;;;21.88;;
7263;SDS011;3673;52.480;13.348;2022-08-25T06:44:10;31.40;;;22.25;;
7263;SDS011;3673;52.480;13.348;2022-08-25T06:46:37;33.33;;;24.00;;
7263;SDS011;3673;52.480;13.348;2022-08-25T06:49:04;33.60;;;22.90;;
7263;SDS011;3673;52.480;13.348;2022-08-25T06:51:32;33.08;;;23.67;;
7263;SDS011;3673;52.480;13.348;2022-08-25T06:53:59;32.17;;;23.02;;
7263;SDS011;3673;52.480;13.348;2022-08-25T06:56:26;37.88;;;23.50;;
7263;SDS011;3673;52.480;13.348;2022-08-25T06:58:54;29.45;;;22.77;;
7263;SDS011;3673;52.480;13.348;2022-08-25T07:01:23;28.40;;;22.75;;
7263;SDS011;3673;52.480;13.348;2022-08-25T07:03:52;33.92;;;21.83;;
7263;SDS011;3673;52.480;13.348;2022-08-25T07:06:22;29.77;;;21.20;;
7263;SDS011;3673;52.480;13.348;2022-08-25T07:08:49;31.52;;;20.90;;
7263;SDS011;3673;52.480;13.348;2022-08-25T07:11:16;30.80;;;20.90;;
7263;SDS011;3673;52.480;13.348;2022-08-25T07:13:44;32.78;;;20.88;;
7263;SDS011;3673;52.480;13.348;2022-08-25T07:16:13;30.67;;;22.83;;
7263;SDS011;3673;52.480;13.348;2022-08-25T07:18:41;29.05;;;21.52;;
7263;SDS011;3673;52.480;13.348;2022-08-25T07:21:09;29.52;;;20.85;;
7263;SDS011;3673;52.480;13.348;2022-08-25T07:23:36;28.42;;;20.90;;
7263;SDS011;3673;52.480;13.348;2022-08-25T07:26:07;27.48;;;20.30;;
7263;SDS011;3673;52.480;13.348;2022-08-25T07:28:36;27.15;;;19.52;;
7263;SDS011;3673;52.480;13.348;2022-08-25T07:31:03;29.75;;;19.05;;
7263;SDS011;3673;52.480;13.348;2022-08-25T07:33:32;26.88;;;19.00;;
7263;SDS011;3673;52.480;13.348;2022-08-25T07:35:59;26.52;;;19.38;;
7263;SDS011;3673;52.480;13.348;2022-08-25T07:38:25;27.50;;;19.55;;
7263;SDS011;3673;52.480;13.348;2022-08-25T07:40:59;27.30;;;18.85;;
7263;SDS011;3673;52.480;13.348;2022-08-25T07:43:27;28.48;;;19.13;;
7263;SDS011;3673;52.480;13.348;2022-08-25T07:45:55;24.75;;;18.58;;
7263;SDS011;3673;52.480;13.348;2022-08-25T07:48:21;23.33;;;16.75;;
7263;SDS011;3673;52.480;13.348;2022-08-25T07:50:49;24.20;;;16.73;;
7263;SDS011;3673;52.480;13.348;2022-08-25T07:53:17;23.55;;;17.77;;
7263;SDS011;3673;52.480;13.348;2022-08-25T07:55:43;30.67;;;18.45;;
7263;SDS011;3673;52.480;13.348;2022-08-25T07:58:11;23.27;;;17.33;;
7263;SDS011;3673;52.480;13.348;2022-08-25T08:00:37;23.75;;;16.52;;
7263;SDS011;3673;52.480;13.348;2022-08-25T08:03:05;25.85;;;17.27;;
7263;SDS011;3673;52.480;13.348;2022-08-25T08:05:34;22.85;;;16.63;;
7263;SDS011;3673;52.480;13.348;2022-08-25T08:08:03;22.90;;;17.20;;
7263;SDS011;3673;52.480;13.348;2022-08-25T08:10:30;26.75;;;17.95;;
7263;SDS011;3673;52.480;13.348;2022-08-25T08:12:56;23.98;;;18.10;;
7263;SDS011;3673;52.480;13.348;2022-08-25T08:15:23;23.15;;;16.55;;
7263;SDS011;3673;52.480;13.348;2022-08-25T08:17:50;26.85;;;17.42;;
7263;SDS011;3673;52.480;13.348;2022-08-25T08:20:17;26.45;;;16.98;;
7263;SDS011;3673;52.480;13.348;2022-08-25T08:22:44;28.90;;;17.52;;
7263;SDS011;3673;52.480;13.348;2022-08-25T08:25:12;26.35;;;18.05;;
7263;SDS011;3673;52.480;13.348;2022-08-25T08:27:39;27.52;;;17.98;;
7263;SDS011;3673;52.480;13.348;2022-08-25T08:30:07;24.67;;;17.48;;
7263;SDS011;3673;52.480;13.348;2022-08-25T08:32:35;25.88;;;18.00;;
7263;SDS011;3673;52.480;13.348;2022-08-25T08:35:02;29.45;;;18.52;;
7263;SDS011;3673;52.480;13.348;2022-08-25T08:37:31;24.42;;;18.10;;
7263;SDS011;3673;52.480;13.348;2022-08-25T08:39:57;29.50;;;18.67;;
7263;SDS011;3673;52.480;13.348;2022-08-25T08:42:36;31.38;;;20.02;;
7263;SDS011;3673;52.480;13.348;2022-08-25T08:45:21;37.47;;;19.38;;
7263;SDS011;3673;52.480;13.348;2022-08-25T08:48:02;28.42;;;19.23;;
7263;SDS011;3673;52.480;13.348;2022-08-25T08:50:48;27.38;;;19.10;;
7263;SDS011;3673;52.480;13.348;2022-08-25T08:53:26;27.77;;;20.00;;
7263;SDS011;3673;52.480;13.348;2022-08-25T08:56:04;30.20;;;19.48;;
7263;SDS011;3673;52.480;13.348;2022-08-25T08:58:39;24.10;;;19.20;;
7263;SDS011;3673;52.480;13.348;2022-08-25T09:01:11;26.23;;;18.38;;
7263;SDS011;3673;52.480;13.348;2022-08-25T09:03:43;26.05;;;18.23;;
7263;SDS011;3673;52.480;13.348;2022-08-25T09:06:17;28.88;;;18.33;;
7263;SDS011;3673;52.480;13.348;2022-08-25T09:08:51;27.17;;;17.77;;
7263;SDS011;3673;52.480;13.348;2022-08-25T09:11:24;23.63;;;18.63;;
7263;SDS011;3673;52.480;13.348;2022-08-25T09:14:09;22.33;;;17.45;;
7263;SDS011;3673;52.480;13.348;2022-08-25T09:16:47;23.42;;;15.40;;
7263;SDS011;3673;52.480;13.348;2022-08-25T09:19:25;22.88;;;16.98;;
7263;SDS011;3673;52.480;13.348;2022-08-25T09:22:15;22.88;;;17.30;;
7263;SDS011;3673;52.480;13.348;2022-08-25T09:24:54;21.08;;;16.83;;
7263;SDS011;3673;52.480;13.348;2022-08-25T09:27:32;18.88;;;15.27;;
7263;SDS011;3673;52.480;13.348;2022-08-25T09:30:08;16.85;;;13.40;;
7263;SDS011;3673;52.480;13.348;2022-08-25T09:32:39;22.48;;;13.90;;
7263;SDS011;3673;52.480;13.348;2022-08-25T09:35:12;24.85;;;15.27;;
7263;SDS011;3673;52.480;13.348;2022-08-25T09:37:54;20.30;;;12.73;;
7263;SDS011;3673;52.480;13.348;2022-08-25T09:40:22;17.10;;;11.93;;
7263;SDS011;3673;52.480;13.348;2022-08-25T09:42:51;17.67;;;12.13;;
7263;SDS011;3673;52.480;13.348;2022-08-25T09:45:39;18.10;;;12.32;;
7263;SDS011;3673;52.480;13.348;2022-08-25T09:48:19;19.25;;;13.48;;
7263;SDS011;3673;52.480;13.348;2022-08-25T09:50:49;24.00;;;12.27;;
7263;SDS011;3673;52.480;13.348;2022-08-25T09:53:17;21.08;;;12.15;;
7263;SDS011;3673;52.480;13.348;2022-08-25T09:55:45;15.25;;;11.20;;
7263;SDS011;3673;52.480;13.348;2022-08-25T09:58:22;17.75;;;10.32;;
7263;SDS011;3673;52.480;13.348;2022-08-25T10:01:00;17.10;;;10.27;;
7263;SDS011;3673;52.480;13.348;2022-08-25T10:03:52;12.70;;;10.70;;
7263;SDS011;3673;52.480;13.348;2022-08-25T10:06:26;16.88;;;12.00;;
7263;SDS011;3673;52.480;13.348;2022-08-25T10:08:59;16.30;;;10.23;;
7263;SDS011;3673;52.480;13.348;2022-08-25T10:11:40;14.70;;;11.50;;
7263;SDS011;3673;52.480;13.348;2022-08-25T10:14:17;13.38;;;11.05;;
7263;SDS011;3673;52.480;13.348;2022-08-25T10:16:59;17.00;;;11.73;;
7263;SDS011;3673;52.480;13.348;2022-08-25T10:19:41;15.77;;;12.35;;
7263;SDS011;3673;52.480;13.348;2022-08-25T10:22:09;15.88;;;9.75;;
7263;SDS011;3673;52.480;13.348;2022-08-25T10:27:16;18.08;;;11.73;;
7263;SDS011;3673;52.480;13.348;2022-08-25T10:29:55;19.45;;;10.30;;
7263;SDS011;3673;52.480;13.348;2022-08-25T10:32:46;14.52;;;9.52;;
7263;SDS011;3673;52.480;13.348;2022-08-25T10:35:31;13.35;;;9.98;;
7263;SDS011;3673;52.480;13.348;2022-08-25T10:38:11;11.32;;;8.25;;
7263;SDS011;3673;52.480;13.348;2022-08-25T10:40:58;15.80;;;9.18;;
7263;SDS011;3673;52.480;13.348;2022-08-25T10:43:41;14.18;;;10.15;;
7263;SDS011;3673;52.480;13.348;2022-08-25T10:46:15;11.77;;;9.98;;
7263;SDS011;3673;52.480;13.348;2022-08-25T10:48:58;13.20;;;9.48;;
7263;SDS011;3673;52.480;13.348;2022-08-25T10:51:35;15.10;;;9.32;;
7263;SDS011;3673;52.480;13.348;2022-08-25T10:54:17;13.95;;;9.02;;
7263;SDS011;3673;52.480;13.348;2022-08-25T10:56:57;11.68;;;8.77;;
7263;SDS011;3673;52.480;13.348;2022-08-25T10:59:41;12.77;;;8.85;;
7263;SDS011;3673;52.480;13.348;2022-08-25T11:02:29;11.60;;;8.50;;
7263;SDS011;3673;52.480;13.348;2022-08-25T11:05:29;16.80;;;8.52;;
7263;SDS011;3673;52.480;13.348;2022-08-25T11:08:04;15.80;;;8.90;;
7263;SDS011;3673;52.480;13.348;2022-08-25T11:10:39;13.65;;;7.68;;
7263;SDS011;3673;52.480;13.348;2022-08-25T11:13:13;16.85;;;9.05;;
7263;SDS011;3673;52.480;13.348;2022-08-25T11:15:51;10.18;;;8.48;;
7263;SDS011;3673;52.480;13.348;2022-08-25T11:18:23;19.58;;;8.88;;
7263;SDS011;3673;52.480;13.348;2022-08-25T11:20:58;12.77;;;7.30;;
7263;SDS011;3673;52.480;13.348;2022-08-25T11:23:34;13.18;;;7.28;;
7263;SDS011;3673;52.480;13.348;2022-08-25T11:26:06;18.65;;;8.65;;
7263;SDS011;3673;52.480;13.348;2022-08-25T11:28:41;11.05;;;7.13;;
7263;SDS011;3673;52.480;13.348;2022-08-25T11:31:19;15.20;;;9.02;;
7263;SDS011;3673;52.480;13.348;2022-08-25T11:33:47;14.82;;;7.93;;
7263;SDS011;3673;52.480;13.348;2022-08-25T11:36:19;13.48;;;7.10;;
7263;SDS011;3673;52.480;13.348;2022-08-25T11:38:57;12.07;;;7.22;;
7263;SDS011;3673;52.480;13.348;2022-08-25T11:41:40;13.05;;;6.93;;
7263;SDS011;3673;52.480;13.348;2022-08-25T11:44:30;15.93;;;8.68;;
7263;SDS011;3673;52.480;13.348;2022-08-25T11:47:18;16.42;;;7.15;;
7263;SDS011;3673;52.480;13.348;2022-08-25T11:50:03;12.07;;;6.55;;
7263;SDS011;3673;52.480;13.348;2022-08-25T11:52:47;13.23;;;7.38;;
7263;SDS011;3673;52.480;13.348;2022-08-25T11:55:19;18.13;;;7.72;;
7263;SDS011;3673;52.480;13.348;2022-08-25T12:01:05;16.00;;;7.63;;
7263;SDS011;3673;52.480;13.348;2022-08-25T12:03:46;21.05;;;8.02;;
7263;SDS011;3673;52.480;13.348;2022-08-25T12:06:36;13.23;;;8.52;;
7263;SDS011;3673;52.480;13.348;2022-08-25T12:13:26;14.25;;;8.15;;
7263;SDS011;3673;52.480;13.348;2022-08-25T12:19:24;18.67;;;8.05;;
7263;SDS011;3673;52.480;13.348;2022-08-25T12:21:55;14.00;;;7.20;;
7263;SDS011;3673;52.480;13.348;2022-08-25T12:24:46;9.18;;;7.05;;
7263;SDS011;3673;52.480;13.348;2022-08-25T12:27:21;18.70;;;7.63;;
7263;SDS011;3673;52.480;13.348;2022-08-25T12:29:56;18.23;;;8.23;;
7263;SDS011;3673;52.480;13.348;2022-08-25T12:32:39;16.13;;;7.63;;
7263;SDS011;3673;52.480;13.348;2022-08-25T12:35:24;14.85;;;8.40;;
7263;SDS011;3673;52.480;13.348;2022-08-25T12:38:00;11.15;;;7.25;;
7263;SDS011;3673;52.480;13.348;2022-08-25T12:40:34;13.43;;;7.55;;
7263;SDS011;3673;52.480;13.348;2022-08-25T12:43:11;18.08;;;7.47;;
7263;SDS011;3673;52.480;13.348;2022-08-25T12:45:52;12.63;;;7.00;;
7263;SDS011;3673;52.480;13.348;2022-08-25T12:51:23;13.48;;;7.18;;
7263;SDS011;3673;52.480;13.348;2022-08-25T12:53:52;12.10;;;6.03;;
7263;SDS011;3673;52.480;13.348;2022-08-25T12:56:27;12.35;;;6.43;;
7263;SDS011;3673;52.480;13.348;2022-08-25T12:59:06;15.38;;;6.88;;
7263;SDS011;3673;52.480;13.348;2022-08-25T13:01:46;10.95;;;5.93;;
7263;SDS011;3673;52.480;13.348;2022-08-25T13:07:43;12.10;;;6.70;;
7263;SDS011;3673;52.480;13.348;2022-08-25T13:10:31;15.88;;;6.35;;
7263;SDS011;3673;52.480;13.348;2022-08-25T13:13:09;14.80;;;7.25;;
7263;SDS011;3673;52.480;13.348;2022-08-25T13:15:56;12.68;;;6.45;;
7263;SDS011;3673;52.480;13.348;2022-08-25T13:18:27;13.02;;;5.95;;
7263;SDS011;3673;52.480;13.348;2022-08-25T13:21:01;13.20;;;7.07;;
7263;SDS011;3673;52.480;13.348;2022-08-25T13:23:42;12.15;;;6.50;;
7263;SDS011;3673;52.480;13.348;2022-08-25T13:26:11;9.52;;;5.90;;
7263;SDS011;3673;52.480;13.348;2022-08-25T13:28:41;15.70;;;7.20;;
7263;SDS011;3673;52.480;13.348;2022-08-25T13:31:13;13.75;;;6.75;;
7263;SDS011;3673;52.480;13.348;2022-08-25T13:33:49;16.77;;;11.00;;
7263;SDS011;3673;52.480;13.348;2022-08-25T13:36:18;15.88;;;7.28;;
7263;SDS011;3673;52.480;13.348;2022-08-25T13:39:12;17.10;;;5.45;;
7263;SDS011;3673;52.480;13.348;2022-08-25T13:41:45;12.18;;;6.35;;
7263;SDS011;3673;52.480;13.348;2022-08-25T13:44:14;17.05;;;6.10;;
7263;SDS011;3673;52.480;13.348;2022-08-25T13:46:43;12.65;;;6.00;;
7263;SDS011;3673;52.480;13.348;2022-08-25T13:49:23;10.93;;;6.13;;
7263;SDS011;3673;52.480;13.348;2022-08-25T13:51:52;18.38;;;7.72;;
7263;SDS011;3673;52.480;13.348;2022-08-25T13:54:23;11.35;;;7.43;;
7263;SDS011;3673;52.480;13.348;2022-08-25T13:56:53;12.13;;;6.38;;
7263;SDS011;3673;52.480;13.348;2022-08-25T13:59:34;12.25;;;6.53;;
7263;SDS011;3673;52.480;13.348;2022-08-25T14:02:08;12.13;;;7.68;;
7263;SDS011;3673;52.480;13.348;2022-08-25T14:04:49;11.20;;;6.78;;
7263;SDS011;3673;52.480;13.348;2022-08-25T14:07:24;12.15;;;6.43;;
7263;SDS011;3673;52.480;13.348;2022-08-25T14:09:57;12.43;;;7.00;;
7263;SDS011;3673;52.480;13.348;2022-08-25T14:12:30;12.52;;;6.43;;
7263;SDS011;3673;52.480;13.348;2022-08-25T14:15:04;20.17;;;6.25;;
7263;SDS011;3673;52.480;13.348;2022-08-25T14:17:40;12.88;;;7.38;;
7263;SDS011;3673;52.480;13.348;2022-08-25T14:20:16;11.27;;;6.30;;
7263;SDS011;3673;52.480;13.348;2022-08-25T14:22:49;10.52;;;6.28;;
7263;SDS011;3673;52.480;13.348;2022-08-25T14:25:22;11.85;;;6.45;;
7263;SDS011;3673;52.480;13.348;2022-08-25T14:27:54;12.30;;;6.28;;
7263;SDS011;3673;52.480;13.348;2022-08-25T14:30:22;13.98;;;5.90;;
7263;SDS011;3673;52.480;13.348;2022-08-25T14:32:51;13.73;;;6.20;;
7263;SDS011;3673;52.480;13.348;2022-08-25T14:35:19;20.70;;;6.80;;
7263;SDS011;3673;52.480;13.348;2022-08-25T14:37:47;17.08;;;6.70;;
7263;SDS011;3673;52.480;13.348;2022-08-25T14:40:14;11.52;;;5.95;;
7263;SDS011;3673;52.480;13.348;2022-08-25T14:42:43;11.77;;;5.90;;
7263;SDS011;3673;52.480;13.348;2022-08-25T14:45:11;12.90;;;6.43;;
7263;SDS011;3673;52.480;13.348;2022-08-25T14:47:38;10.95;;;5.82;;
7263;SDS011;3673;52.480;13.348;2022-08-25T14:50:09;10.90;;;5.70;;
7263;SDS011;3673;52.480;13.348;2022-08-25T14:52:39;13.18;;;6.38;;
7263;SDS011;3673;52.480;13.348;2022-08-25T14:55:08;12.98;;;8.38;;
7263;SDS011;3673;52.480;13.348;2022-08-25T14:57:36;15.65;;;6.80;;
7263;SDS011;3673;52.480;13.348;2022-08-25T15:00:04;12.98;;;6.63;;
7263;SDS011;3673;52.480;13.348;2022-08-25T15:02:33;21.42;;;7.93;;
7263;SDS011;3673;52.480;13.348;2022-08-25T15:05:06;14.15;;;6.13;;
7263;SDS011;3673;52.480;13.348;2022-08-25T15:07:36;12.98;;;6.35;;
7263;SDS011;3673;52.480;13.348;2022-08-25T15:10:18;22.45;;;8.15;;
7263;SDS011;3673;52.480;13.348;2022-08-25T15:12:45;15.18;;;7.72;;
7263;SDS011;3673;52.480;13.348;2022-08-25T15:15:12;16.85;;;7.65;;
7263;SDS011;3673;52.480;13.348;2022-08-25T15:17:40;16.27;;;7.03;;
7263;SDS011;3673;52.480;13.348;2022-08-25T15:20:11;19.73;;;6.72;;
7263;SDS011;3673;52.480;13.348;2022-08-25T15:22:40;17.05;;;8.10;;
7263;SDS011;3673;52.480;13.348;2022-08-25T15:25:07;15.93;;;7.43;;
7263;SDS011;3673;52.480;13.348;2022-08-25T15:27:35;16.23;;;7.72;;